KBDG

Blanding Municipal Airport

Blanding, Utah, USA
METAR KBDG 172115Z AUTO 17003KT 10SM 08/M14 A3006 RMK AO1 T00761144
Observed Flight Rules
Dec-17 @ 21:15 UTC (21 minutes ago)
Wind Visibility
170° at 3 knots 10 miles
Temperatures Readings
Current 8°C / 46°F
Dewpoint -14°C / 7°F
Humidity 20%
Altimeter 30.06" Hg
Pressure 1018 hPa
Elevation 1788
METAR KBDG 172115Z AUTO 17003KT 10SM 08/M14 A3006 RMK AO1 T00761144
Observed Flight Rules
Dec-17 @ 21:15 UTC
(21 minutes ago)
Wind Visibility
170° at 3 knots 10 miles
Temperature Dewpoint
8°C / 46°F -14°C / 7°F
Humidity Altimeter Pressure
20% 30.06" Hg 1018 hPa